sensor_id;sensor_type;location;lat;lon;timestamp;pressure;altitude;pressure_sealevel;temperature;humidity
49459;BME280;35354;51.296;16.924;2023-02-12T00:01:42;101046.94;;;6.63;100.00
49459;BME280;35354;51.296;16.924;2023-02-12T00:04:08;101055.53;;;6.65;100.00
49459;BME280;35354;51.296;16.924;2023-02-12T00:06:33;101053.84;;;6.62;100.00
49459;BME280;35354;51.296;16.924;2023-02-12T00:08:58;101058.13;;;6.66;100.00
49459;BME280;35354;51.296;16.924;2023-02-12T00:11:26;101049.59;;;6.52;100.00
49459;BME280;35354;51.296;16.924;2023-02-12T00:13:52;101054.81;;;6.46;100.00
49459;BME280;35354;51.296;16.924;2023-02-12T00:16:21;101077.16;;;6.59;100.00
49459;BME280;35354;51.296;16.924;2023-02-12T00:18:47;101059.16;;;6.39;100.00
49459;BME280;35354;51.296;16.924;2023-02-12T00:21:13;101071.22;;;6.46;100.00
49459;BME280;35354;51.296;16.924;2023-02-12T00:23:39;101082.34;;;6.59;100.00
49459;BME280;35354;51.296;16.924;2023-02-12T00:26:13;101083.25;;;6.52;100.00
49459;BME280;35354;51.296;16.924;2023-02-12T00:28:39;101081.53;;;6.48;100.00
49459;BME280;35354;51.296;16.924;2023-02-12T00:31:09;101061.78;;;6.38;100.00
49459;BME280;35354;51.296;16.924;2023-02-12T00:33:35;101086.69;;;6.51;100.00
49459;BME280;35354;51.296;16.924;2023-02-12T00:36:01;101085.03;;;6.45;100.00
49459;BME280;35354;51.296;16.924;2023-02-12T00:38:26;101090.97;;;6.58;100.00
49459;BME280;35354;51.296;16.924;2023-02-12T00:40:51;101091.84;;;6.59;100.00
49459;BME280;35354;51.296;16.924;2023-02-12T00:43:17;101072.06;;;6.50;100.00
49459;BME280;35354;51.296;16.924;2023-02-12T00:45:44;101085.88;;;6.44;100.00
49459;BME280;35354;51.296;16.924;2023-02-12T00:48:09;101103.97;;;6.47;100.00
49459;BME280;35354;51.296;16.924;2023-02-12T00:50:35;101062.69;;;6.29;100.00
49459;BME280;35354;51.296;16.924;2023-02-12T00:53:00;101078.16;;;6.41;100.00
49459;BME280;35354;51.296;16.924;2023-02-12T00:55:25;101093.53;;;6.60;100.00
49459;BME280;35354;51.296;16.924;2023-02-12T00:57:51;101097.00;;;6.59;100.00
49459;BME280;35354;51.296;16.924;2023-02-12T01:00:16;101101.31;;;6.60;100.00
49459;BME280;35354;51.296;16.924;2023-02-12T01:02:41;101096.19;;;6.54;100.00
49459;BME280;35354;51.296;16.924;2023-02-12T01:05:07;101070.44;;;6.34;100.00
49459;BME280;35354;51.296;16.924;2023-02-12T01:07:32;101102.19;;;6.56;100.00
49459;BME280;35354;51.296;16.924;2023-02-12T01:09:58;101100.50;;;6.53;100.00
49459;BME280;35354;51.296;16.924;2023-02-12T01:12:23;101112.56;;;6.54;100.00
49459;BME280;35354;51.296;16.924;2023-02-12T01:14:48;101103.09;;;6.48;100.00
49459;BME280;35354;51.296;16.924;2023-02-12T01:17:14;101131.59;;;6.50;100.00
49459;BME280;35354;51.296;16.924;2023-02-12T01:19:39;101129.88;;;6.47;100.00
49459;BME280;35354;51.296;16.924;2023-02-12T01:22:04;101135.91;;;6.49;100.00
49459;BME280;35354;51.296;16.924;2023-02-12T01:24:30;101139.44;;;6.33;100.00
49459;BME280;35354;51.296;16.924;2023-02-12T01:26:55;101135.94;;;6.45;100.00
49459;BME280;35354;51.296;16.924;2023-02-12T01:29:20;101135.88;;;6.48;100.00
49459;BME280;35354;51.296;16.924;2023-02-12T01:31:46;101121.34;;;6.33;100.00
49459;BME280;35354;51.296;16.924;2023-02-12T01:34:11;101123.91;;;6.36;100.00
49459;BME280;35354;51.296;16.924;2023-02-12T01:36:37;101150.53;;;6.52;100.00
49459;BME280;35354;51.296;16.924;2023-02-12T01:39:04;101139.34;;;6.47;100.00
49459;BME280;35354;51.296;16.924;2023-02-12T01:41:33;101154.09;;;6.37;100.00
49459;BME280;35354;51.296;16.924;2023-02-12T01:46:39;101140.25;;;6.43;100.00
49459;BME280;35354;51.296;16.924;2023-02-12T01:49:08;101159.16;;;6.54;100.00
49459;BME280;35354;51.296;16.924;2023-02-12T01:51:35;101150.56;;;6.49;100.00
49459;BME280;35354;51.296;16.924;2023-02-12T01:54:04;101165.16;;;6.62;100.00
49459;BME280;35354;51.296;16.924;2023-02-12T01:56:32;101174.63;;;6.65;100.00
49459;BME280;35354;51.296;16.924;2023-02-12T01:58:57;101156.63;;;6.43;100.00
49459;BME280;35354;51.296;16.924;2023-02-12T02:01:28;101185.03;;;6.59;100.00
49459;BME280;35354;51.296;16.924;2023-02-12T02:03:59;101174.72;;;6.51;100.00
49459;BME280;35354;51.296;16.924;2023-02-12T02:06:30;101177.31;;;6.49;100.00
49459;BME280;35354;51.296;16.924;2023-02-12T02:08:57;101185.03;;;6.62;100.00
49459;BME280;35354;51.296;16.924;2023-02-12T02:11:23;101178.13;;;6.59;100.00
49459;BME280;35354;51.296;16.924;2023-02-12T02:14:07;101184.19;;;6.54;100.00
49459;BME280;35354;51.296;16.924;2023-02-12T02:22:26;101172.19;;;6.42;100.00
49459;BME280;35354;51.296;16.924;2023-02-12T02:30:26;101210.16;;;6.38;100.00
49459;BME280;35354;51.296;16.924;2023-02-12T02:35:47;101210.13;;;6.40;100.00
49459;BME280;35354;51.296;16.924;2023-02-12T02:44:59;101210.19;;;6.28;100.00
49459;BME280;35354;51.296;16.924;2023-02-12T02:47:37;101216.19;;;6.31;100.00
49459;BME280;35354;51.296;16.924;2023-02-12T02:50:16;101178.34;;;6.06;100.00
49459;BME280;35354;51.296;16.924;2023-02-12T02:52:59;101208.47;;;6.28;100.00
49459;BME280;35354;51.296;16.924;2023-02-12T02:55:31;101204.19;;;6.18;100.00
49459;BME280;35354;51.296;16.924;2023-02-12T02:58:24;101193.84;;;6.13;100.00
49459;BME280;35354;51.296;16.924;2023-02-12T03:03:32;101205.91;;;6.20;100.00
49459;BME280;35354;51.296;16.924;2023-02-12T03:06:06;101212.78;;;6.29;100.00
49459;BME280;35354;51.296;16.924;2023-02-12T03:08:37;101227.38;;;6.39;100.00
49459;BME280;35354;51.296;16.924;2023-02-12T03:11:10;101229.13;;;6.31;100.00
49459;BME280;35354;51.296;16.924;2023-02-12T03:13:45;101229.13;;;6.31;100.00
49459;BME280;35354;51.296;16.924;2023-02-12T03:16:21;101211.94;;;6.25;100.00
49459;BME280;35354;51.296;16.924;2023-02-12T03:19:12;101242.03;;;6.40;100.00
49459;BME280;35354;51.296;16.924;2023-02-12T03:21:49;101244.66;;;6.31;100.00
49459;BME280;35354;51.296;16.924;2023-02-12T03:24:22;101250.72;;;6.33;100.00
49459;BME280;35354;51.296;16.924;2023-02-12T03:26:53;101244.66;;;6.34;100.00
49459;BME280;35354;51.296;16.924;2023-02-12T03:29:22;101255.00;;;6.36;100.00
49459;BME280;35354;51.296;16.924;2023-02-12T03:32:23;101256.75;;;6.31;100.00
49459;BME280;35354;51.296;16.924;2023-02-12T03:35:14;101268.00;;;6.17;100.00
49459;BME280;35354;51.296;16.924;2023-02-12T03:43:18;101245.66;;;5.86;100.00
49459;BME280;35354;51.296;16.924;2023-02-12T03:46:02;101275.75;;;6.14;100.00
49459;BME280;35354;51.296;16.924;2023-02-12T03:48:36;101254.22;;;6.11;100.00
49459;BME280;35354;51.296;16.924;2023-02-12T03:51:11;101283.50;;;6.30;100.00
49459;BME280;35354;51.296;16.924;2023-02-12T03:53:39;101293.03;;;6.17;100.00
49459;BME280;35354;51.296;16.924;2023-02-12T03:56:37;101294.75;;;6.24;100.00
49459;BME280;35354;51.296;16.924;2023-02-12T03:59:05;101278.38;;;6.11;100.00
49459;BME280;35354;51.296;16.924;2023-02-12T04:01:32;101279.22;;;6.13;100.00
49459;BME280;35354;51.296;16.924;2023-02-12T04:03:58;101284.38;;;6.22;100.00
49459;BME280;35354;51.296;16.924;2023-02-12T04:06:27;101300.75;;;6.28;100.00
49459;BME280;35354;51.296;16.924;2023-02-12T04:08:55;101285.28;;;6.15;100.00
49459;BME280;35354;51.296;16.924;2023-02-12T04:14:11;101305.94;;;6.11;100.00
49459;BME280;35354;51.296;16.924;2023-02-12T04:17:00;101299.06;;;6.07;100.00
49459;BME280;35354;51.296;16.924;2023-02-12T04:22:26;101327.50;;;6.19;100.00
49459;BME280;35354;51.296;16.924;2023-02-12T04:30:47;101300.81;;;5.86;100.00
49459;BME280;35354;51.296;16.924;2023-02-12T04:33:24;101312.00;;;5.79;100.00
49459;BME280;35354;51.296;16.924;2023-02-12T04:36:00;101308.56;;;5.88;100.00
49459;BME280;35354;51.296;16.924;2023-02-12T04:38:54;101334.41;;;6.11;100.00
49459;BME280;35354;51.296;16.924;2023-02-12T04:41:22;101334.44;;;6.12;100.00
49459;BME280;35354;51.296;16.924;2023-02-12T04:43:48;101318.91;;;5.95;100.00
49459;BME280;35354;51.296;16.924;2023-02-12T04:46:13;101336.13;;;6.13;100.00
49459;BME280;35354;51.296;16.924;2023-02-12T04:48:52;101329.25;;;6.15;100.00
49459;BME280;35354;51.296;16.924;2023-02-12T04:51:17;101311.16;;;6.08;100.00
49459;BME280;35354;51.296;16.924;2023-02-12T04:53:43;101342.19;;;6.09;100.00
49459;BME280;35354;51.296;16.924;2023-02-12T04:56:10;101330.97;;;6.06;100.00
49459;BME280;35354;51.296;16.924;2023-02-12T04:58:37;101318.91;;;5.92;100.00
49459;BME280;35354;51.296;16.924;2023-02-12T05:01:02;101344.78;;;6.03;100.00
49459;BME280;35354;51.296;16.924;2023-02-12T05:03:27;101322.34;;;5.91;100.00
49459;BME280;35354;51.296;16.924;2023-02-12T05:05:53;101358.53;;;6.19;100.00
49459;BME280;35354;51.296;16.924;2023-02-12T05:08:18;101352.53;;;6.08;100.00
49459;BME280;35354;51.296;16.924;2023-02-12T05:10:43;101349.94;;;6.09;100.00
49459;BME280;35354;51.296;16.924;2023-02-12T05:13:09;101355.09;;;6.18;100.00
49459;BME280;35354;51.296;16.924;2023-02-12T05:15:34;101362.88;;;6.08;100.00
49459;BME280;35354;51.296;16.924;2023-02-12T05:18:02;101370.63;;;6.21;100.00
49459;BME280;35354;51.296;16.924;2023-02-12T05:20:27;101347.38;;;5.98;100.00
49459;BME280;35354;51.296;16.924;2023-02-12T05:22:53;101349.94;;;6.02;100.00
49459;BME280;35354;51.296;16.924;2023-02-12T05:25:18;101370.63;;;6.02;100.00
49459;BME280;35354;51.296;16.924;2023-02-12T05:27:43;101355.13;;;5.98;100.00
49459;BME280;35354;51.296;16.924;2023-02-12T05:30:09;101356.88;;;6.03;100.00
49459;BME280;35354;51.296;16.924;2023-02-12T05:32:35;101377.53;;;6.04;100.00
49459;BME280;35354;51.296;16.924;2023-02-12T05:35:00;101376.66;;;5.87;100.00
49459;BME280;35354;51.296;16.924;2023-02-12T05:37:25;101369.75;;;5.73;100.00
49459;BME280;35354;51.296;16.924;2023-02-12T05:39:51;101390.44;;;5.86;100.00
49459;BME280;35354;51.296;16.924;2023-02-12T05:42:17;101364.59;;;5.92;100.00
49459;BME280;35354;51.296;16.924;2023-02-12T05:44:43;101393.88;;;5.83;100.00
49459;BME280;35354;51.296;16.924;2023-02-12T05:47:08;101389.56;;;5.88;100.00
49459;BME280;35354;51.296;16.924;2023-02-12T05:49:34;101399.97;;;5.99;100.00
49459;BME280;35354;51.296;16.924;2023-02-12T05:51:59;101396.53;;;6.03;100.00
49459;BME280;35354;51.296;16.924;2023-02-12T05:54:24;101406.81;;;5.86;100.00
49459;BME280;35354;51.296;16.924;2023-02-12T05:56:50;101406.00;;;5.92;100.00
49459;BME280;35354;51.296;16.924;2023-02-12T05:59:21;101395.59;;;5.89;100.00
49459;BME280;35354;51.296;16.924;2023-02-12T06:01:48;101425.78;;;5.78;100.00
49459;BME280;35354;51.296;16.924;2023-02-12T06:04:16;101417.16;;;5.83;100.00
49459;BME280;35354;51.296;16.924;2023-02-12T06:06:42;101428.34;;;5.88;100.00
49459;BME280;35354;51.296;16.924;2023-02-12T06:09:09;101430.09;;;5.82;100.00
49459;BME280;35354;51.296;16.924;2023-02-12T06:11:35;101414.56;;;5.75;100.00
49459;BME280;35354;51.296;16.924;2023-02-12T06:14:02;101431.81;;;5.83;100.00
49459;BME280;35354;51.296;16.924;2023-02-12T06:16:28;101435.25;;;5.79;100.00
49459;BME280;35354;51.296;16.924;2023-02-12T06:18:54;101433.50;;;5.62;100.00
49459;BME280;35354;51.296;16.924;2023-02-12T06:21:21;101436.03;;;5.56;100.00
49459;BME280;35354;51.296;16.924;2023-02-12T06:23:47;101447.25;;;5.55;100.00
49459;BME280;35354;51.296;16.924;2023-02-12T06:26:14;101455.91;;;5.69;100.00
49459;BME280;35354;51.296;16.924;2023-02-12T06:28:39;101443.81;;;5.64;100.00
49459;BME280;35354;51.296;16.924;2023-02-12T06:31:04;101479.19;;;5.80;100.00
49459;BME280;35354;51.296;16.924;2023-02-12T06:33:30;101463.69;;;5.79;100.00
49459;BME280;35354;51.296;16.924;2023-02-12T06:35:56;101440.38;;;5.53;100.00
49459;BME280;35354;51.296;16.924;2023-02-12T06:38:21;101493.00;;;5.81;100.00
49459;BME280;35354;51.296;16.924;2023-02-12T06:40:47;101483.50;;;5.80;100.00
49459;BME280;35354;51.296;16.924;2023-02-12T06:43:12;101499.06;;;5.87;100.00
49459;BME280;35354;51.296;16.924;2023-02-12T06:45:38;101505.13;;;5.97;100.00
49459;BME280;35354;51.296;16.924;2023-02-12T06:48:03;101474.06;;;5.82;100.00
49459;BME280;35354;51.296;16.924;2023-02-12T06:50:28;101500.84;;;5.99;100.00
49459;BME280;35354;51.296;16.924;2023-02-12T06:52:54;101504.25;;;5.92;100.00
49459;BME280;35354;51.296;16.924;2023-02-12T06:55:19;101483.50;;;5.75;100.00
49459;BME280;35354;51.296;16.924;2023-02-12T06:57:45;101485.22;;;5.71;100.00
49459;BME280;35354;51.296;16.924;2023-02-12T07:00:11;101503.34;;;5.88;100.00
49459;BME280;35354;51.296;16.924;2023-02-12T07:02:36;101490.38;;;5.76;100.00
49459;BME280;35354;51.296;16.924;2023-02-12T07:05:02;101518.94;;;6.00;100.00
49459;BME280;35354;51.296;16.924;2023-02-12T07:07:27;101513.69;;;5.78;100.00
49459;BME280;35354;51.296;16.924;2023-02-12T07:09:52;101510.19;;;5.62;100.00
49459;BME280;35354;51.296;16.924;2023-02-12T07:12:18;101498.91;;;5.46;100.00
49459;BME280;35354;51.296;16.924;2023-02-12T07:14:43;101524.81;;;5.64;100.00
49459;BME280;35354;51.296;16.924;2023-02-12T07:17:08;101504.19;;;5.70;100.00
49459;BME280;35354;51.296;16.924;2023-02-12T07:19:34;101512.81;;;5.85;100.00
49459;BME280;35354;51.296;16.924;2023-02-12T07:22:00;101514.63;;;5.99;100.00
49459;BME280;35354;51.296;16.924;2023-02-12T07:24:25;101513.78;;;6.04;100.00
49459;BME280;35354;51.296;16.924;2023-02-12T07:26:51;101535.34;;;6.16;100.00
49459;BME280;35354;51.296;16.924;2023-02-12T07:29:16;101537.09;;;6.16;100.00
49459;BME280;35354;51.296;16.924;2023-02-12T07:31:41;101544.00;;;6.31;100.00
49459;BME280;35354;51.296;16.924;2023-02-12T07:34:08;101537.06;;;6.14;100.00
49459;BME280;35354;51.296;16.924;2023-02-12T07:36:34;101554.34;;;6.24;100.00
49459;BME280;35354;51.296;16.924;2023-02-12T07:38:59;101541.25;;;5.85;100.00
49459;BME280;35354;51.296;16.924;2023-02-12T07:41:30;101531.84;;;5.97;100.00
49459;BME280;35354;51.296;16.924;2023-02-12T07:44:07;101557.75;;;6.19;100.00
49459;BME280;35354;51.296;16.924;2023-02-12T07:46:45;101555.19;;;6.22;100.00
49459;BME280;35354;51.296;16.924;2023-02-12T07:49:13;101554.31;;;6.28;100.00
49459;BME280;35354;51.296;16.924;2023-02-12T07:51:39;101557.81;;;6.28;100.00
49459;BME280;35354;51.296;16.924;2023-02-12T07:54:05;101557.78;;;6.11;100.00
49459;BME280;35354;51.296;16.924;2023-02-12T07:56:33;101556.88;;;6.09;100.00
49459;BME280;35354;51.296;16.924;2023-02-12T07:59:02;101582.81;;;6.26;100.00
49459;BME280;35354;51.296;16.924;2023-02-12T08:01:33;101570.72;;;6.31;100.00
49459;BME280;35354;51.296;16.924;2023-02-12T08:04:02;101559.53;;;6.32;100.00
49459;BME280;35354;51.296;16.924;2023-02-12T08:06:30;101581.97;;;6.48;100.00
49459;BME280;35354;51.296;16.924;2023-02-12T08:08:57;101562.97;;;6.34;100.00
49459;BME280;35354;51.296;16.924;2023-02-12T08:11:24;101582.84;;;6.55;100.00
49459;BME280;35354;51.296;16.924;2023-02-12T08:13:50;101559.53;;;6.38;100.00
49459;BME280;35354;51.296;16.924;2023-02-12T08:16:19;101562.16;;;6.49;100.00
49459;BME280;35354;51.296;16.924;2023-02-12T08:18:45;101578.50;;;6.57;100.00
49459;BME280;35354;51.296;16.924;2023-02-12T08:21:13;101588.91;;;6.63;100.00
49459;BME280;35354;51.296;16.924;2023-02-12T08:23:39;101591.50;;;6.66;100.00
49459;BME280;35354;51.296;16.924;2023-02-12T08:26:12;101593.19;;;6.69;100.00
49459;BME280;35354;51.296;16.924;2023-02-12T08:28:40;101582.00;;;6.67;100.00
49459;BME280;35354;51.296;16.924;2023-02-12T08:31:10;101601.84;;;6.75;100.00
49459;BME280;35354;51.296;16.924;2023-02-12T08:33:36;101597.53;;;6.81;100.00
49459;BME280;35354;51.296;16.924;2023-02-12T08:36:10;101584.56;;;6.73;100.00
49459;BME280;35354;51.296;16.924;2023-02-12T08:38:36;101575.94;;;6.69;100.00
49459;BME280;35354;51.296;16.924;2023-02-12T08:41:04;101600.97;;;6.89;100.00
49459;BME280;35354;51.296;16.924;2023-02-12T08:43:30;101579.38;;;6.78;100.00
49459;BME280;35354;51.296;16.924;2023-02-12T08:46:00;101580.28;;;6.58;100.00
49459;BME280;35354;51.296;16.924;2023-02-12T08:48:26;101610.50;;;6.79;100.00
49459;BME280;35354;51.296;16.924;2023-02-12T08:50:51;101583.69;;;6.69;100.00
49459;BME280;35354;51.296;16.924;2023-02-12T08:53:16;101605.28;;;6.81;100.00
49459;BME280;35354;51.296;16.924;2023-02-12T08:55:47;101607.00;;;6.82;100.00
49459;BME280;35354;51.296;16.924;2023-02-12T08:58:13;101613.94;;;6.87;100.00
49459;BME280;35354;51.296;16.924;2023-02-12T09:00:38;101589.75;;;6.78;100.00
49459;BME280;35354;51.296;16.924;2023-02-12T09:03:04;101613.06;;;6.94;100.00
49459;BME280;35354;51.296;16.924;2023-02-12T09:05:29;101611.34;;;7.01;100.00
49459;BME280;35354;51.296;16.924;2023-02-12T09:07:54;101613.06;;;6.96;100.00
49459;BME280;35354;51.296;16.924;2023-02-12T09:10:20;101601.84;;;6.85;100.00
49459;BME280;35354;51.296;16.924;2023-02-12T09:12:45;101607.88;;;6.99;100.00
49459;BME280;35354;51.296;16.924;2023-02-12T09:15:10;101617.38;;;7.17;100.00
49459;BME280;35354;51.296;16.924;2023-02-12T09:17:36;101632.06;;;7.21;100.00
49459;BME280;35354;51.296;16.924;2023-02-12T09:20:01;101635.50;;;7.24;100.00
49459;BME280;35354;51.296;16.924;2023-02-12T09:22:26;101634.63;;;7.29;100.00
49459;BME280;35354;51.296;16.924;2023-02-12T09:24:52;101617.34;;;7.24;99.42
49459;BME280;35354;51.296;16.924;2023-02-12T09:27:17;101650.19;;;7.25;99.09
49459;BME280;35354;51.296;16.924;2023-02-12T09:29:42;101632.94;;;7.21;99.14
49459;BME280;35354;51.296;16.924;2023-02-12T09:32:08;101632.06;;;7.25;99.18
49459;BME280;35354;51.296;16.924;2023-02-12T09:34:35;101646.69;;;7.45;98.83
49459;BME280;35354;51.296;16.924;2023-02-12T09:37:00;101647.56;;;7.52;98.58
49459;BME280;35354;51.296;16.924;2023-02-12T09:39:26;101647.53;;;7.64;98.54
49459;BME280;35354;51.296;16.924;2023-02-12T09:45:22;101657.00;;;7.80;97.21
49459;BME280;35354;51.296;16.924;2023-02-12T09:50:53;101660.44;;;7.85;97.01
49459;BME280;35354;51.296;16.924;2023-02-12T09:53:22;101654.41;;;7.79;96.78
49459;BME280;35354;51.296;16.924;2023-02-12T09:55:49;101643.13;;;7.83;96.68
49459;BME280;35354;51.296;16.924;2023-02-12T09:58:27;101644.03;;;7.79;96.49
49459;BME280;35354;51.296;16.924;2023-02-12T10:00:54;101661.25;;;7.92;96.88
49459;BME280;35354;51.296;16.924;2023-02-12T10:03:20;101663.84;;;8.03;96.10
49459;BME280;35354;51.296;16.924;2023-02-12T10:05:52;101642.22;;;7.99;95.90
49459;BME280;35354;51.296;16.924;2023-02-12T10:13:51;101653.28;;;8.47;93.70
49459;BME280;35354;51.296;16.924;2023-02-12T10:19:40;101652.31;;;8.62;94.12
49459;BME280;35354;51.296;16.924;2023-02-12T10:22:20;101625.47;;;8.64;93.42
49459;BME280;35354;51.296;16.924;2023-02-12T10:24:54;101650.31;;;8.96;92.97
49459;BME280;35354;51.296;16.924;2023-02-12T10:27:37;101646.78;;;9.08;92.17
49459;BME280;35354;51.296;16.924;2023-02-12T10:30:15;101621.69;;;9.00;91.56
49459;BME280;35354;51.296;16.924;2023-02-12T10:32:42;101635.47;;;9.12;90.72
49459;BME280;35354;51.296;16.924;2023-02-12T10:35:16;101645.84;;;9.15;90.34
49459;BME280;35354;51.296;16.924;2023-02-12T10:37:42;101647.72;;;8.97;90.44
49459;BME280;35354;51.296;16.924;2023-02-12T10:40:28;101647.72;;;8.99;90.40
49459;BME280;35354;51.296;16.924;2023-02-12T10:42:55;101625.28;;;8.87;90.28
49459;BME280;35354;51.296;16.924;2023-02-12T10:45:33;101645.09;;;9.02;90.21
49459;BME280;35354;51.296;16.924;2023-02-12T10:48:04;101650.19;;;9.13;89.48
49459;BME280;35354;51.296;16.924;2023-02-12T10:53:36;101645.75;;;9.27;88.96
49459;BME280;35354;51.296;16.924;2023-02-12T10:58:57;101634.22;;;9.48;87.85
49459;BME280;35354;51.296;16.924;2023-02-12T11:01:34;101622.91;;;9.52;86.87
49459;BME280;35354;51.296;16.924;2023-02-12T11:04:27;101629.13;;;9.39;86.71
49459;BME280;35354;51.296;16.924;2023-02-12T11:09:39;101631.00;;;9.28;87.43
49459;BME280;35354;51.296;16.924;2023-02-12T11:12:38;101631.06;;;9.20;86.23
49459;BME280;35354;51.296;16.924;2023-02-12T11:15:12;101638.16;;;9.01;86.22
49459;BME280;35354;51.296;16.924;2023-02-12T11:17:43;101640.69;;;9.09;85.75
49459;BME280;35354;51.296;16.924;2023-02-12T11:22:54;101601.88;;;8.87;85.70
49459;BME280;35354;51.296;16.924;2023-02-12T11:25:22;101627.84;;;8.90;86.08
49459;BME280;35354;51.296;16.924;2023-02-12T11:28:14;101619.19;;;8.90;86.58
49459;BME280;35354;51.296;16.924;2023-02-12T11:31:00;101626.06;;;8.95;86.40
49459;BME280;35354;51.296;16.924;2023-02-12T11:33:34;101601.06;;;8.85;86.87
49459;BME280;35354;51.296;16.924;2023-02-12T11:36:12;101620.81;;;9.02;87.44
49459;BME280;35354;51.296;16.924;2023-02-12T11:38:47;101597.47;;;8.98;87.05
49459;BME280;35354;51.296;16.924;2023-02-12T11:44:11;101600.59;;;9.31;83.73
49459;BME280;35354;51.296;16.924;2023-02-12T11:46:37;101610.03;;;9.43;82.97
49459;BME280;35354;51.296;16.924;2023-02-12T11:49:04;101601.38;;;9.41;82.78
49459;BME280;35354;51.296;16.924;2023-02-12T11:51:31;101603.00;;;9.51;82.24
49459;BME280;35354;51.296;16.924;2023-02-12T11:53:59;101586.63;;;9.41;82.46
49459;BME280;35354;51.296;16.924;2023-02-12T11:56:44;101585.75;;;9.44;82.12
49459;BME280;35354;51.296;16.924;2023-02-12T11:59:30;101609.84;;;9.60;81.34
49459;BME280;35354;51.296;16.924;2023-02-12T12:02:09;101615.84;;;9.65;81.65
49459;BME280;35354;51.296;16.924;2023-02-12T12:04:41;101603.00;;;9.53;82.83
49459;BME280;35354;51.296;16.924;2023-02-12T12:07:15;101613.38;;;9.54;83.23
49459;BME280;35354;51.296;16.924;2023-02-12T12:12:53;101621.28;;;9.43;84.16
49459;BME280;35354;51.296;16.924;2023-02-12T12:15:31;101631.69;;;9.45;84.28
49459;BME280;35354;51.296;16.924;2023-02-12T12:21:51;101606.75;;;9.24;84.05
49459;BME280;35354;51.296;16.924;2023-02-12T12:24:25;101618.81;;;9.33;84.56
49459;BME280;35354;51.296;16.924;2023-02-12T12:27:18;101592.88;;;9.25;84.15
49459;BME280;35354;51.296;16.924;2023-02-12T12:30:10;101572.03;;;9.27;83.27
49459;BME280;35354;51.296;16.924;2023-02-12T12:32:37;101612.56;;;9.49;83.07
49459;BME280;35354;51.296;16.924;2023-02-12T12:35:09;101590.25;;;9.27;82.48
49459;BME280;35354;51.296;16.924;2023-02-12T12:37:45;101607.50;;;9.35;82.61
49459;BME280;35354;51.296;16.924;2023-02-12T12:40:35;101602.16;;;9.49;82.76
49459;BME280;35354;51.296;16.924;2023-02-12T12:43:18;101596.16;;;9.44;81.78
49459;BME280;35354;51.296;16.924;2023-02-12T12:51:35;101579.00;;;9.28;81.44
49459;BME280;35354;51.296;16.924;2023-02-12T13:04:53;101600.41;;;9.53;81.45
49459;BME280;35354;51.296;16.924;2023-02-12T13:10:17;101606.59;;;9.41;82.42
49459;BME280;35354;51.296;16.924;2023-02-12T13:15:44;101608.50;;;9.22;82.36
49459;BME280;35354;51.296;16.924;2023-02-12T13:24:10;101578.31;;;9.06;83.30
49459;BME280;35354;51.296;16.924;2023-02-12T13:26:57;101611.94;;;9.25;83.04
49459;BME280;35354;51.296;16.924;2023-02-12T13:29:30;101582.63;;;9.10;82.64
49459;BME280;35354;51.296;16.924;2023-02-12T13:32:11;101581.75;;;9.09;82.26
49459;BME280;35354;51.296;16.924;2023-02-12T13:34:39;101589.72;;;8.94;82.41
49459;BME280;35354;51.296;16.924;2023-02-12T13:37:14;101575.81;;;8.96;81.86
49459;BME280;35354;51.296;16.924;2023-02-12T13:39:46;101575.78;;;9.03;82.01
49459;BME280;35354;51.296;16.924;2023-02-12T13:45:00;101600.78;;;9.16;79.60
49459;BME280;35354;51.296;16.924;2023-02-12T13:56:21;101599.03;;;9.13;78.57
49459;BME280;35354;51.296;16.924;2023-02-12T13:58:53;101595.59;;;9.14;78.49
49459;BME280;35354;51.296;16.924;2023-02-12T14:09:38;101590.53;;;8.99;79.07
49459;BME280;35354;51.296;16.924;2023-02-12T14:12:09;101607.06;;;8.93;78.80
49459;BME280;35354;51.296;16.924;2023-02-12T14:14:39;101591.56;;;8.80;79.08
49459;BME280;35354;51.296;16.924;2023-02-12T14:20:20;101606.28;;;8.79;79.01
49459;BME280;35354;51.296;16.924;2023-02-12T14:28:21;101607.13;;;8.80;79.94
49459;BME280;35354;51.296;16.924;2023-02-12T14:33:42;101602.81;;;8.79;80.20
49459;BME280;35354;51.296;16.924;2023-02-12T14:36:18;101616.69;;;8.78;80.29
49459;BME280;35354;51.296;16.924;2023-02-12T14:41:25;101610.69;;;8.72;80.83
49459;BME280;35354;51.296;16.924;2023-02-12T14:47:11;101600.34;;;8.65;80.95
49459;BME280;35354;51.296;16.924;2023-02-12T14:49:44;101590.84;;;8.64;81.26
49459;BME280;35354;51.296;16.924;2023-02-12T14:54:48;101575.34;;;8.52;80.75
49459;BME280;35354;51.296;16.924;2023-02-12T14:59:49;101602.03;;;8.67;81.26
49459;BME280;35354;51.296;16.924;2023-02-12T15:02:25;101592.50;;;8.69;81.41
49459;BME280;35354;51.296;16.924;2023-02-12T15:04:54;101607.19;;;8.73;81.68
49459;BME280;35354;51.296;16.924;2023-02-12T15:07:29;101578.75;;;8.60;81.84
49459;BME280;35354;51.296;16.924;2023-02-12T15:09:58;101597.69;;;8.72;81.58
49459;BME280;35354;51.296;16.924;2023-02-12T15:12:44;101606.34;;;8.71;81.58
49459;BME280;35354;51.296;16.924;2023-02-12T15:15:39;101604.59;;;8.72;81.74
49459;BME280;35354;51.296;16.924;2023-02-12T15:23:47;101595.22;;;8.54;81.84
49459;BME280;35354;51.296;16.924;2023-02-12T15:26:21;101614.19;;;8.62;82.72
49459;BME280;35354;51.296;16.924;2023-02-12T15:28:50;101600.41;;;8.56;82.30
49459;BME280;35354;51.296;16.924;2023-02-12T15:31:20;101631.50;;;8.63;82.51
49459;BME280;35354;51.296;16.924;2023-02-12T15:33:48;101622.88;;;8.58;82.61